createdAt,value
2023-05-14T00:01:56.798Z,4.2
2023-05-14T00:04:25.053Z,4
2023-05-14T00:09:21.575Z,4.7
2023-05-14T00:11:49.829Z,4.2
2023-05-14T00:14:18.089Z,4.2
2023-05-14T00:16:46.342Z,4.3
2023-05-14T00:19:14.594Z,4.4
2023-05-14T00:21:42.855Z,4.6
2023-05-14T00:22:57.587Z,4
2023-05-14T00:24:11.130Z,4.2
2023-05-14T00:26:39.393Z,4.1
2023-05-14T00:29:07.641Z,4.1
2023-05-14T00:31:35.902Z,3.7
2023-05-14T00:34:04.154Z,4.3
2023-05-14T00:36:32.411Z,4.5
2023-05-14T00:41:28.933Z,4.6
2023-05-14T00:43:57.183Z,4.7
2023-05-14T00:46:25.443Z,4.3
2023-05-14T00:47:40.171Z,4.5
2023-05-14T00:48:53.713Z,4.5
2023-05-14T00:51:21.970Z,4.6
2023-05-14T00:53:50.226Z,4.9
2023-05-14T00:56:18.491Z,4.5
2023-05-14T00:58:46.739Z,5.1
2023-05-14T01:01:14.998Z,4.8
2023-05-14T01:03:43.262Z,5.5
2023-05-14T01:06:11.514Z,5.5
2023-05-14T01:08:39.769Z,4.7
2023-05-14T01:12:22.761Z,4.5
2023-05-14T01:13:36.300Z,4.8
2023-05-14T01:16:04.563Z,5.1
2023-05-14T01:18:32.817Z,4.8
2023-05-14T01:21:01.074Z,4.9
2023-05-14T01:23:29.326Z,4.8
2023-05-14T01:25:57.589Z,4.9
2023-05-14T01:28:25.845Z,5.3
2023-05-14T01:30:54.101Z,5.4
2023-05-14T01:33:22.351Z,5
2023-05-14T01:35:50.611Z,5.2
2023-05-14T01:37:05.339Z,5
2023-05-14T01:38:18.891Z,5.5
2023-05-14T01:43:15.399Z,5
2023-05-14T01:45:43.660Z,5.9
2023-05-14T01:48:11.915Z,5.7
2023-05-14T01:50:40.167Z,5.7
2023-05-14T01:53:08.427Z,5.1
2023-05-14T01:55:36.683Z,5.6
2023-05-14T01:58:04.936Z,5.2
2023-05-14T02:00:33.192Z,5.1
2023-05-14T02:01:47.930Z,5
2023-05-14T02:03:01.468Z,5.3
2023-05-14T02:05:29.731Z,5.8
2023-05-14T02:07:57.989Z,5.6
2023-05-14T02:10:26.237Z,5.1
2023-05-14T02:15:22.752Z,5.9
2023-05-14T02:17:51.011Z,5.8
2023-05-14T02:20:19.269Z,5.3
2023-05-14T02:22:47.522Z,5.4
2023-05-14T02:25:15.779Z,5.1
2023-05-14T02:26:30.509Z,5.7
2023-05-14T02:27:44.060Z,5.5
2023-05-14T02:30:12.312Z,5.3
2023-05-14T02:32:40.568Z,5.6
2023-05-14T02:35:08.827Z,5.9
2023-05-14T02:37:37.085Z,5.5
2023-05-14T02:40:05.340Z,5.2
2023-05-14T02:42:33.592Z,5.8
2023-05-14T02:47:30.110Z,5.4
2023-05-14T02:49:58.371Z,5.7
2023-05-14T02:51:13.099Z,5.7
2023-05-14T02:52:26.639Z,5.5
2023-05-14T02:54:54.896Z,5.7
2023-05-14T02:57:23.154Z,5.2
2023-05-14T02:59:51.410Z,5.4
2023-05-14T03:02:19.668Z,5.7
2023-05-14T03:04:47.928Z,5.6
2023-05-14T03:07:16.183Z,5.8
2023-05-14T03:09:44.443Z,6.1
2023-05-14T03:12:12.700Z,5.8
2023-05-14T03:14:40.955Z,5.7
2023-05-14T03:17:09.210Z,5.9
2023-05-14T03:19:37.473Z,6.3
2023-05-14T03:22:05.732Z,5.9
2023-05-14T03:24:33.986Z,5.9
2023-05-14T03:27:02.243Z,6.4
2023-05-14T03:29:30.502Z,6.1
2023-05-14T03:31:58.752Z,5.9
2023-05-14T03:34:27.014Z,5.4
2023-05-14T03:36:55.268Z,5.8
2023-05-14T03:39:23.526Z,5.5
2023-05-14T03:40:38.275Z,5.5
2023-05-14T03:41:51.820Z,5.4
2023-05-14T03:44:20.076Z,5.3
2023-05-14T03:49:16.588Z,5.1
2023-05-14T03:51:44.853Z,5.2
2023-05-14T03:54:13.101Z,5.6
2023-05-14T03:56:41.363Z,5
2023-05-14T03:59:09.623Z,5.1
2023-05-14T04:01:37.873Z,5.3
2023-05-14T04:04:06.130Z,5.3
2023-05-14T04:05:20.863Z,6
2023-05-14T04:06:34.413Z,5.4
2023-05-14T04:09:02.663Z,5.6
2023-05-14T04:11:30.921Z,5.6
2023-05-14T04:13:59.185Z,5.5
2023-05-14T04:16:27.439Z,5.7
2023-05-14T04:21:23.954Z,5.3
2023-05-14T04:23:52.206Z,5.6
2023-05-14T04:26:20.462Z,5.1
2023-05-14T04:28:48.721Z,5.5
2023-05-14T04:30:03.451Z,5.5
2023-05-14T04:31:16.995Z,5.2
2023-05-14T04:33:45.254Z,5.1
2023-05-14T04:36:13.516Z,5
2023-05-14T04:38:41.774Z,5.3
2023-05-14T04:41:10.023Z,5
2023-05-14T04:43:38.286Z,4.8
2023-05-14T04:46:06.534Z,5.3
2023-05-14T04:48:34.794Z,5.6
2023-05-14T04:53:31.304Z,5.1
2023-05-14T04:54:46.035Z,4.8
2023-05-14T04:55:59.587Z,5.4
2023-05-14T04:58:27.839Z,5.1
2023-05-14T05:00:56.097Z,5.3
2023-05-14T05:03:24.349Z,4.8
2023-05-14T05:05:52.609Z,5.4
2023-05-14T05:08:20.869Z,5.4
2023-05-14T05:10:49.124Z,5.4
2023-05-14T05:13:17.379Z,5.4
2023-05-14T05:15:45.635Z,4.8
2023-05-14T05:18:13.892Z,5.2
2023-05-14T05:19:28.624Z,5
2023-05-14T05:23:10.658Z,5.4
2023-05-14T05:25:38.910Z,5.3
2023-05-14T05:28:07.173Z,5.4
2023-05-14T05:30:35.428Z,5.2
2023-05-14T05:33:03.686Z,5.5
2023-05-14T05:35:31.938Z,5.4
2023-05-14T05:38:00.192Z,5.1
2023-05-14T05:40:28.447Z,4.9
2023-05-14T05:42:56.708Z,5.2
2023-05-14T05:44:11.441Z,5.2
2023-05-14T05:45:24.985Z,5.6
2023-05-14T05:47:53.237Z,5.3
2023-05-14T05:50:21.492Z,5.3
2023-05-14T05:55:18.012Z,5.1
2023-05-14T05:57:46.263Z,5.4
2023-05-14T06:00:14.519Z,5.1
2023-05-14T06:02:42.777Z,5.4
2023-05-14T06:05:11.034Z,5.6
2023-05-14T06:07:39.291Z,5.3
2023-05-14T06:08:54.019Z,5.5
2023-05-14T06:10:07.567Z,4.7
2023-05-14T06:12:35.823Z,5.2
2023-05-14T06:15:04.085Z,5.2
2023-05-14T06:17:32.335Z,4.9
2023-05-14T06:20:00.597Z,4.5
2023-05-14T06:22:28.854Z,4.8
2023-05-14T06:27:25.363Z,4.7
2023-05-14T06:29:53.624Z,5.1
2023-05-14T06:32:21.879Z,4.9
2023-05-14T06:33:36.611Z,5
2023-05-14T06:34:50.155Z,5
2023-05-14T06:37:18.413Z,4.7
2023-05-14T06:39:46.424Z,5
2023-05-14T06:42:14.672Z,4.6
2023-05-14T06:44:42.931Z,4.6
2023-05-14T06:47:11.185Z,4.4
2023-05-14T06:49:39.442Z,4.4
2023-05-14T06:52:07.700Z,3.8
2023-05-14T06:54:35.960Z,4.2
2023-05-14T06:58:18.943Z,3.9
2023-05-14T06:59:32.488Z,4.1
2023-05-14T07:02:00.747Z,3.7
2023-05-14T07:04:29.005Z,3.8
2023-05-14T07:06:57.257Z,3.6
2023-05-14T07:09:25.515Z,3.6
2023-05-14T07:11:53.774Z,3.7
2023-05-14T07:14:22.029Z,3.3
2023-05-14T07:16:50.288Z,3.3
2023-05-14T07:19:18.541Z,3.5
2023-05-14T07:21:46.800Z,3.6
2023-05-14T07:23:01.529Z,3.2
2023-05-14T07:24:15.079Z,3.3
2023-05-14T07:29:11.585Z,2.9
2023-05-14T07:31:39.840Z,3.2
2023-05-14T07:34:08.100Z,3
2023-05-14T07:36:36.356Z,2.7
2023-05-14T07:39:04.570Z,2.7
2023-05-14T07:41:32.832Z,3.3
2023-05-14T07:44:01.092Z,3.2
2023-05-14T07:46:29.346Z,3.4
2023-05-14T07:47:44.074Z,3.4
2023-05-14T07:48:57.625Z,3.6
2023-05-14T07:51:25.879Z,3.2
2023-05-14T07:53:54.137Z,3.6
2023-05-14T07:56:22.395Z,3.6
2023-05-14T08:01:18.903Z,3.3
2023-05-14T08:03:47.159Z,3.8
2023-05-14T08:06:15.414Z,3.6
2023-05-14T08:08:43.672Z,3.9
2023-05-14T08:11:11.932Z,3.6
2023-05-14T08:12:26.658Z,3.3
2023-05-14T08:13:40.210Z,3.4
2023-05-14T08:16:08.459Z,3.4
2023-05-14T08:18:36.721Z,3.4
2023-05-14T08:21:04.979Z,3.3
2023-05-14T08:23:33.232Z,3.1
2023-05-14T08:26:01.484Z,3.3
2023-05-14T08:28:29.746Z,2.9
2023-05-14T08:33:26.263Z,3
2023-05-14T08:35:54.526Z,3.3
2023-05-14T08:37:09.250Z,3.1
2023-05-14T08:38:22.790Z,3.3
2023-05-14T08:40:51.046Z,2.6
2023-05-14T08:43:19.302Z,2.7
2023-05-14T08:45:47.559Z,2.5
2023-05-14T08:48:15.817Z,2.6
2023-05-14T08:50:44.070Z,2.7
2023-05-14T08:53:12.326Z,2.7
2023-05-14T08:55:40.583Z,2.8
2023-05-14T08:58:08.842Z,2.8
2023-05-14T09:00:37.099Z,2.7
2023-05-14T09:03:05.353Z,2.8
2023-05-14T09:05:33.611Z,2.8
2023-05-14T09:08:01.870Z,2.4
2023-05-14T09:10:30.131Z,2.6
2023-05-14T09:12:58.382Z,2.6
2023-05-14T09:15:26.640Z,2.9
2023-05-14T09:17:54.900Z,2.5
2023-05-14T09:20:23.152Z,2.7
2023-05-14T09:22:51.416Z,2.7
2023-05-14T09:25:19.665Z,3.1
2023-05-14T09:26:34.421Z,2.9
2023-05-14T09:27:47.966Z,2.5
2023-05-14T09:30:16.223Z,3.3
2023-05-14T09:35:12.733Z,2.6
2023-05-14T09:37:40.993Z,2.9
2023-05-14T09:40:09.240Z,2.6
2023-05-14T09:42:37.502Z,2.9
2023-05-14T09:45:05.758Z,2.6
2023-05-14T09:47:34.017Z,2.5
2023-05-14T09:50:02.266Z,2.5
2023-05-14T09:51:16.996Z,2.6
2023-05-14T09:52:30.550Z,2.7
2023-05-14T09:54:58.806Z,2.6
2023-05-14T09:57:27.056Z,3
2023-05-14T09:59:55.321Z,2.7
2023-05-14T10:02:23.572Z,2.6
2023-05-14T10:07:20.083Z,2.3
2023-05-14T10:09:48.345Z,2.8
2023-05-14T10:12:16.599Z,2.8
2023-05-14T10:14:44.859Z,2.7
2023-05-14T10:15:59.582Z,2.6
2023-05-14T10:17:13.132Z,2.7
2023-05-14T10:19:41.392Z,2.4
2023-05-14T10:22:09.641Z,2.7
2023-05-14T10:24:37.901Z,2.3
2023-05-14T10:27:06.153Z,2.5
2023-05-14T10:29:34.418Z,2.5
2023-05-14T10:32:02.670Z,2.4
2023-05-14T10:34:30.922Z,2.3
2023-05-14T10:39:27.433Z,2.4
2023-05-14T10:40:42.167Z,2.1
2023-05-14T10:41:55.716Z,2.3
2023-05-14T10:44:23.967Z,2.4
2023-05-14T10:46:52.226Z,2.2
2023-05-14T10:49:20.485Z,2.3
2023-05-14T10:51:48.738Z,2.5
2023-05-14T10:54:16.999Z,2.3
2023-05-14T10:56:45.249Z,2.4
2023-05-14T10:59:13.509Z,2.2
2023-05-14T11:01:41.766Z,2.2
2023-05-14T11:04:10.020Z,2.2
2023-05-14T11:05:24.750Z,2.4
2023-05-14T11:09:06.789Z,2.4
2023-05-14T11:11:35.045Z,2.4
2023-05-14T11:14:03.300Z,2
2023-05-14T11:16:31.557Z,2.3
2023-05-14T11:18:59.815Z,2.4
2023-05-14T11:21:28.069Z,2.4
2023-05-14T11:23:56.320Z,2.4
2023-05-14T11:26:24.579Z,2.7
2023-05-14T11:28:52.841Z,2.4
2023-05-14T11:30:07.563Z,2.4
2023-05-14T11:31:21.119Z,2.4
2023-05-14T11:33:49.375Z,2.3
2023-05-14T11:36:17.631Z,2.5
2023-05-14T11:41:14.142Z,2.4
2023-05-14T11:43:42.397Z,2.5
2023-05-14T11:46:10.654Z,2.6
2023-05-14T11:48:38.910Z,2.6
2023-05-14T11:51:07.166Z,2.8
2023-05-14T11:53:35.421Z,2.5
2023-05-14T11:54:50.157Z,2.5
2023-05-14T11:56:03.706Z,2.3
2023-05-14T11:58:31.956Z,2.2
2023-05-14T12:01:00.218Z,2.2
2023-05-14T12:03:28.470Z,2.3
2023-05-14T12:05:56.726Z,2.4
2023-05-14T12:08:24.988Z,2.7
2023-05-14T12:13:21.494Z,2.6
2023-05-14T12:15:49.756Z,2.5
2023-05-14T12:18:18.010Z,2.7
2023-05-14T12:19:32.738Z,2.6
2023-05-14T12:20:46.282Z,2.7
2023-05-14T12:23:14.543Z,2.4
2023-05-14T12:25:42.800Z,2.6
2023-05-14T12:28:11.053Z,2.4
2023-05-14T12:30:39.309Z,2.5
2023-05-14T12:33:07.568Z,2.4
2023-05-14T12:35:35.827Z,2.5
2023-05-14T12:38:04.082Z,2.6
2023-05-14T12:40:32.342Z,2.5
2023-05-14T12:44:15.320Z,2.2
2023-05-14T12:45:28.879Z,2.8
2023-05-14T12:47:57.132Z,2.4
2023-05-14T12:50:25.387Z,2.3
2023-05-14T12:52:53.641Z,2.7
2023-05-14T12:55:21.901Z,2.6
2023-05-14T12:57:50.156Z,2.6
2023-05-14T13:00:18.408Z,2.4
2023-05-14T13:02:46.671Z,2.8
2023-05-14T13:05:14.928Z,3.1
2023-05-14T13:07:43.180Z,2.8
2023-05-14T13:08:57.908Z,2.6
2023-05-14T13:10:11.461Z,2.7
2023-05-14T13:15:07.966Z,2.5
2023-05-14T13:17:36.230Z,2.5
2023-05-14T13:20:04.484Z,2.9
2023-05-14T13:22:32.743Z,3.4
2023-05-14T13:25:00.992Z,2.9
2023-05-14T13:27:29.252Z,2.3
2023-05-14T13:29:57.514Z,2.7
2023-05-14T13:32:25.766Z,2.3
2023-05-14T13:33:40.500Z,2.8
2023-05-14T13:34:54.044Z,2.5
2023-05-14T13:37:22.300Z,2.5
2023-05-14T13:39:50.554Z,2.8
2023-05-14T13:42:18.813Z,1.9
2023-05-14T13:47:15.323Z,2.6
2023-05-14T13:49:43.582Z,2.6
2023-05-14T13:52:11.832Z,2.4
2023-05-14T13:54:40.091Z,2.2
2023-05-14T13:57:08.353Z,2.5
2023-05-14T13:58:23.075Z,2.8
2023-05-14T13:59:36.631Z,2.3
2023-05-14T14:02:04.880Z,2.8
2023-05-14T14:04:33.138Z,2.7
2023-05-14T14:07:01.398Z,2.8
2023-05-14T14:09:29.649Z,2.7
2023-05-14T14:11:57.907Z,3
2023-05-14T14:14:26.166Z,2.7
2023-05-14T14:19:22.684Z,2.9
2023-05-14T14:21:50.940Z,2.6
2023-05-14T14:23:05.668Z,2.5
2023-05-14T14:24:19.216Z,2.9
2023-05-14T14:26:47.467Z,3.7
2023-05-14T14:29:15.723Z,4.7
2023-05-14T14:31:43.987Z,5
2023-05-14T14:34:12.242Z,2.8
2023-05-14T14:36:40.492Z,3.1
2023-05-14T14:39:08.749Z,5.9
2023-05-14T14:41:37.028Z,2.9
2023-05-14T14:44:05.263Z,2.9
2023-05-14T14:46:33.524Z,2.8
2023-05-14T14:49:01.785Z,2.8
2023-05-14T14:51:30.036Z,2.9
2023-05-14T14:53:58.299Z,2.4
2023-05-14T14:56:26.548Z,2.5
2023-05-14T14:58:54.805Z,3.2
2023-05-14T15:01:23.062Z,2.8
2023-05-14T15:03:51.324Z,2.6
2023-05-14T15:06:19.574Z,2.8
2023-05-14T15:08:47.831Z,2.2
2023-05-14T15:11:16.092Z,2.6
2023-05-14T15:12:30.836Z,2.5
2023-05-14T15:13:44.390Z,2.6
2023-05-14T15:16:12.641Z,2.7
2023-05-14T15:21:09.154Z,2.6
2023-05-14T15:23:37.418Z,2.8
2023-05-14T15:26:05.666Z,3.3
2023-05-14T15:28:33.930Z,3
2023-05-14T15:31:02.182Z,3
2023-05-14T15:33:30.440Z,2.9
2023-05-14T15:35:58.695Z,2.6
2023-05-14T15:37:13.431Z,2.9
2023-05-14T15:38:26.977Z,3
2023-05-14T15:40:55.231Z,2.6
2023-05-14T15:43:23.485Z,2.6
2023-05-14T15:45:51.741Z,2.7
2023-05-14T15:48:20.001Z,2.6
2023-05-14T15:53:16.513Z,2.3
2023-05-14T15:55:44.771Z,2.5
2023-05-14T15:58:13.025Z,2.5
2023-05-14T16:00:41.283Z,2.9
2023-05-14T16:01:56.012Z,2.7
2023-05-14T16:03:09.563Z,2.5
2023-05-14T16:05:37.829Z,2.7
2023-05-14T16:08:06.074Z,2.9
2023-05-14T16:10:34.333Z,3.2
2023-05-14T16:13:02.588Z,2.7
2023-05-14T16:15:30.848Z,2.7
2023-05-14T16:17:59.105Z,2.7
2023-05-14T16:20:27.358Z,2.8
2023-05-14T16:25:23.872Z,2.6
2023-05-14T16:26:38.602Z,2.8
2023-05-14T16:27:52.150Z,2.7
2023-05-14T16:30:20.408Z,2.8
2023-05-14T16:32:48.662Z,2.8
2023-05-14T16:35:16.919Z,2.5
2023-05-14T16:37:45.181Z,2.5
2023-05-14T16:40:13.439Z,2.5
2023-05-14T16:42:41.695Z,2.5
2023-05-14T16:45:09.947Z,2.7
2023-05-14T16:47:38.203Z,2.7
2023-05-14T16:50:06.463Z,2.5
2023-05-14T16:51:21.193Z,2.5
2023-05-14T16:55:03.230Z,2.7
2023-05-14T16:57:31.490Z,2.2
2023-05-14T16:59:59.740Z,2.9
2023-05-14T17:02:27.998Z,2.8
2023-05-14T17:04:56.260Z,2.5
2023-05-14T17:07:24.515Z,2.9
2023-05-14T17:09:52.772Z,2.5
2023-05-14T17:12:21.032Z,2.9
2023-05-14T17:14:49.284Z,2.5
2023-05-14T17:16:04.014Z,2.4
2023-05-14T17:17:17.562Z,2.7
2023-05-14T17:19:45.814Z,2.7
2023-05-14T17:22:14.078Z,2.9
2023-05-14T17:27:10.591Z,2.4
2023-05-14T17:29:38.841Z,2.3
2023-05-14T17:32:07.100Z,2.5
2023-05-14T17:34:35.356Z,2.9
2023-05-14T17:37:03.615Z,3.1
2023-05-14T17:39:31.867Z,2.5
2023-05-14T17:40:46.598Z,2.7
2023-05-14T17:42:00.148Z,2.9
2023-05-14T17:44:28.398Z,2.6
2023-05-14T17:46:56.662Z,2.8
2023-05-14T17:49:24.914Z,2.8
2023-05-14T17:51:53.179Z,2.9
2023-05-14T17:54:21.423Z,2.9
2023-05-14T17:59:17.937Z,3.2
2023-05-14T18:01:46.193Z,2.9
2023-05-14T18:04:14.453Z,3.1
2023-05-14T18:05:29.181Z,2.8
2023-05-14T18:06:42.729Z,2.7
2023-05-14T18:09:10.991Z,3.4
2023-05-14T18:11:39.239Z,2.6
2023-05-14T18:14:07.504Z,2.8
2023-05-14T18:16:35.761Z,2.7
2023-05-14T18:19:04.012Z,3
2023-05-14T18:21:32.266Z,3.2
2023-05-14T18:24:00.528Z,3
2023-05-14T18:26:28.783Z,3.2
2023-05-14T18:30:11.770Z,3.3
2023-05-14T18:31:25.321Z,3.1
2023-05-14T18:33:53.569Z,3.4
2023-05-14T18:36:21.825Z,3.2
2023-05-14T18:38:50.091Z,3.2
2023-05-14T18:41:18.346Z,3.2
2023-05-14T18:43:46.602Z,3.1
2023-05-14T18:46:14.856Z,3.1
2023-05-14T18:48:43.113Z,3.3
2023-05-14T18:51:11.365Z,3.3
2023-05-14T18:53:39.624Z,3.3
2023-05-14T18:54:54.353Z,3
2023-05-14T18:56:07.905Z,3
2023-05-14T19:01:04.415Z,3.2
2023-05-14T19:03:32.677Z,3.1
2023-05-14T19:06:00.925Z,3.5
2023-05-14T19:08:29.184Z,3.2
2023-05-14T19:10:57.444Z,3.1
2023-05-14T19:13:25.711Z,3.2
2023-05-14T19:15:53.953Z,3.5
2023-05-14T19:18:22.218Z,3.4
2023-05-14T19:19:36.943Z,3.3
2023-05-14T19:20:50.495Z,3.6
2023-05-14T19:23:18.751Z,3.6
2023-05-14T19:25:47.005Z,3.7
2023-05-14T19:28:15.267Z,3.5
2023-05-14T19:33:11.775Z,3.6
2023-05-14T19:35:40.028Z,3.8
2023-05-14T19:38:08.291Z,4
2023-05-14T19:40:36.537Z,3.9
2023-05-14T19:43:04.799Z,4
2023-05-14T19:44:19.522Z,3.8
2023-05-14T19:45:33.075Z,3.8
2023-05-14T19:48:01.331Z,4
2023-05-14T19:50:29.581Z,4.1
2023-05-14T19:52:57.840Z,3.8
2023-05-14T19:55:26.103Z,4.1
2023-05-14T19:57:54.357Z,4.1
2023-05-14T20:00:22.612Z,4.1
2023-05-14T20:05:19.122Z,4
2023-05-14T20:07:47.383Z,3.6
2023-05-14T20:09:02.113Z,3.7
2023-05-14T20:10:15.654Z,4.2
2023-05-14T20:12:43.913Z,4
2023-05-14T20:15:12.166Z,4.1
2023-05-14T20:17:40.423Z,4
2023-05-14T20:20:08.678Z,3.7
2023-05-14T20:22:36.937Z,3.6
2023-05-14T20:25:05.192Z,4.2
2023-05-14T20:27:33.452Z,4
2023-05-14T20:30:01.706Z,3.6
2023-05-14T20:32:29.966Z,4.3
2023-05-14T20:34:58.221Z,3.6
2023-05-14T20:37:26.481Z,3.8
2023-05-14T20:39:54.741Z,4.2
2023-05-14T20:42:22.997Z,3.8
2023-05-14T20:44:51.246Z,4.1
2023-05-14T20:47:19.511Z,4
2023-05-14T20:49:47.763Z,4
2023-05-14T20:52:16.016Z,3.9
2023-05-14T20:54:44.271Z,4.2
2023-05-14T20:57:12.529Z,4.3
2023-05-14T20:58:27.279Z,4.2
2023-05-14T20:59:40.827Z,4.1
2023-05-14T21:02:09.084Z,4.2
2023-05-14T21:07:05.601Z,4.2
2023-05-14T21:09:33.848Z,4.4
2023-05-14T21:12:02.108Z,4.7
2023-05-14T21:14:30.368Z,4.5
2023-05-14T21:16:58.624Z,3.9
2023-05-14T21:19:26.875Z,4.2
2023-05-14T21:21:55.139Z,4.3
2023-05-14T21:23:09.869Z,4.4
2023-05-14T21:24:23.410Z,4.7
2023-05-14T21:26:51.668Z,4.4
2023-05-14T21:29:19.924Z,4.4
2023-05-14T21:31:48.181Z,4.3
2023-05-14T21:34:16.437Z,4.6
2023-05-14T21:39:12.949Z,4.5
2023-05-14T21:41:41.213Z,4.9
2023-05-14T21:46:37.726Z,4.7
2023-05-14T21:47:52.457Z,4.6
2023-05-14T21:49:05.997Z,4.8
2023-05-14T21:51:34.260Z,4.6
2023-05-14T21:54:02.512Z,4.6
2023-05-14T21:56:30.770Z,4.2
2023-05-14T21:58:59.027Z,5.1
2023-05-14T22:01:27.289Z,4.9
2023-05-14T22:03:55.548Z,4.9
2023-05-14T22:06:23.796Z,5
2023-05-14T22:11:20.314Z,4.7
2023-05-14T22:12:35.046Z,4.7
2023-05-14T22:13:48.588Z,5.1
2023-05-14T22:16:16.851Z,4.9
2023-05-14T22:18:45.109Z,5.2
2023-05-14T22:21:13.359Z,5.1
2023-05-14T22:23:41.621Z,4.9
2023-05-14T22:26:09.871Z,5.3
2023-05-14T22:28:38.134Z,4.7
2023-05-14T22:31:06.401Z,5
2023-05-14T22:33:34.648Z,5.2
2023-05-14T22:36:02.902Z,5.1
2023-05-14T22:37:17.634Z,5.1
2023-05-14T22:40:59.669Z,5.1
2023-05-14T22:43:27.923Z,5.4
2023-05-14T22:45:56.186Z,5.7
2023-05-14T22:48:24.438Z,5.5
2023-05-14T22:50:52.701Z,5.1
2023-05-14T22:53:20.951Z,5.5
2023-05-14T22:55:49.210Z,5.7
2023-05-14T22:58:17.461Z,5.6
2023-05-14T23:00:45.725Z,4.8
2023-05-14T23:02:00.452Z,5.5
2023-05-14T23:03:13.993Z,5.5
2023-05-14T23:05:42.257Z,5.7
2023-05-14T23:08:10.515Z,5.6
2023-05-14T23:13:07.025Z,5.5
2023-05-14T23:15:35.281Z,5.2
2023-05-14T23:18:03.542Z,5.6
2023-05-14T23:20:31.791Z,5.7
2023-05-14T23:23:00.049Z,6.4
2023-05-14T23:25:28.302Z,5.8
2023-05-14T23:26:43.038Z,6.1
2023-05-14T23:27:56.587Z,5.5
2023-05-14T23:30:24.834Z,6.1
2023-05-14T23:32:53.096Z,5.7
2023-05-14T23:35:21.347Z,6
2023-05-14T23:37:49.607Z,5.6
2023-05-14T23:40:17.865Z,6.1
2023-05-14T23:45:14.373Z,6.1
2023-05-14T23:47:42.633Z,5.8
2023-05-14T23:50:10.891Z,6
2023-05-14T23:51:25.622Z,6.2
2023-05-14T23:52:39.170Z,6.4
2023-05-14T23:55:07.420Z,6.2
2023-05-14T23:57:35.674Z,6.5
